createdAt,value
2018-07-12T00:00:22.242Z,5.73
2018-07-12T00:02:49.606Z,5.83
2018-07-12T00:05:16.954Z,5.47
2018-07-12T00:07:44.313Z,5.87
2018-07-12T00:10:11.899Z,5.23
2018-07-12T00:12:39.262Z,5.20
2018-07-12T00:15:06.619Z,5.87
2018-07-12T00:17:34.123Z,5.90
2018-07-12T00:20:01.483Z,6.03
2018-07-12T00:22:29.180Z,6.13
2018-07-12T00:24:56.797Z,5.67
2018-07-12T00:27:24.158Z,6.40
2018-07-12T00:29:51.492Z,5.40
2018-07-12T00:32:18.826Z,6.00
2018-07-12T00:34:46.191Z,7.50
2018-07-12T00:37:13.528Z,5.03
2018-07-12T00:39:41.075Z,4.50
2018-07-12T00:42:08.408Z,4.97
2018-07-12T00:44:35.726Z,4.90
2018-07-12T00:47:03.127Z,4.87
2018-07-12T00:49:30.514Z,5.47
2018-07-12T00:51:57.881Z,5.33
2018-07-12T00:54:25.234Z,5.47
2018-07-12T00:56:52.565Z,4.90
2018-07-12T00:59:20.019Z,4.83
2018-07-12T01:01:47.379Z,4.47
2018-07-12T01:04:14.786Z,4.70
2018-07-12T01:06:42.145Z,6.00
2018-07-12T01:09:09.611Z,4.87
2018-07-12T01:11:36.991Z,4.37
2018-07-12T01:14:04.330Z,5.20
2018-07-12T01:16:31.714Z,5.90
2018-07-12T01:18:59.108Z,5.47
2018-07-12T01:21:26.709Z,5.13
2018-07-12T01:23:54.092Z,5.30
2018-07-12T01:26:21.436Z,4.90
2018-07-12T01:28:48.982Z,4.50
2018-07-12T01:31:16.322Z,4.60
2018-07-12T01:33:43.893Z,4.67
2018-07-12T01:36:11.318Z,5.90
2018-07-12T01:38:38.797Z,5.37
2018-07-12T01:41:06.190Z,4.97
2018-07-12T01:43:33.560Z,5.37
2018-07-12T01:46:00.918Z,5.50
2018-07-12T01:48:28.274Z,5.30
2018-07-12T01:50:55.685Z,5.20
2018-07-12T01:53:23.222Z,5.40
2018-07-12T01:55:50.763Z,5.50
2018-07-12T01:58:18.125Z,4.80
2018-07-12T02:00:46.050Z,4.60
2018-07-12T02:03:13.455Z,4.87
2018-07-12T02:05:40.887Z,5.20
2018-07-12T02:08:08.236Z,5.17
2018-07-12T02:10:37.557Z,5.00
2018-07-12T02:13:04.916Z,5.40
2018-07-12T02:15:32.239Z,5.20
2018-07-12T02:17:59.581Z,5.87
2018-07-12T02:20:26.950Z,4.90
2018-07-12T02:22:54.447Z,5.17
2018-07-12T02:25:21.839Z,5.00
2018-07-12T02:27:49.198Z,5.00
2018-07-12T02:30:16.615Z,6.50
2018-07-12T02:32:43.984Z,5.00
2018-07-12T02:35:11.399Z,5.43
2018-07-12T02:37:38.699Z,4.97
2018-07-12T02:40:06.053Z,5.13
2018-07-12T02:42:33.415Z,5.27
2018-07-12T02:45:00.783Z,5.20
2018-07-12T02:47:28.110Z,5.63
2018-07-12T02:49:55.495Z,5.33
2018-07-12T02:52:22.856Z,5.47
2018-07-12T02:54:50.192Z,5.77
2018-07-12T02:57:17.575Z,5.63
2018-07-12T02:59:44.905Z,7.43
2018-07-12T03:02:12.277Z,4.90
2018-07-12T03:04:39.635Z,4.63
2018-07-12T03:07:07.012Z,4.93
2018-07-12T03:09:34.376Z,4.97
2018-07-12T03:12:01.708Z,5.90
2018-07-12T03:14:29.095Z,5.37
2018-07-12T03:16:56.452Z,5.77
2018-07-12T03:19:23.794Z,5.20
2018-07-12T03:21:51.182Z,5.90
2018-07-12T03:24:18.538Z,4.70
2018-07-12T03:26:45.900Z,5.40
2018-07-12T03:29:13.409Z,5.57
2018-07-12T03:31:40.766Z,5.67
2018-07-12T03:34:08.101Z,4.80
2018-07-12T03:36:35.427Z,5.07
2018-07-12T03:39:03.164Z,5.60
2018-07-12T03:41:30.558Z,5.57
2018-07-12T03:43:57.925Z,5.07
2018-07-12T03:46:25.250Z,5.73
2018-07-12T03:48:52.614Z,5.40
2018-07-12T03:51:19.971Z,6.17
2018-07-12T03:53:48.129Z,5.40
2018-07-12T03:56:15.482Z,5.00
2018-07-12T03:58:42.906Z,5.50
2018-07-12T04:01:10.311Z,5.17
2018-07-12T04:03:37.654Z,5.57
2018-07-12T04:06:05.009Z,5.10
2018-07-12T04:08:32.379Z,5.53
2018-07-12T04:10:59.764Z,6.27
2018-07-12T04:13:27.122Z,5.23
2018-07-12T04:15:54.465Z,5.40
2018-07-12T04:18:21.805Z,7.07
2018-07-12T04:20:49.171Z,5.93
2018-07-12T04:23:16.513Z,8.47
2018-07-12T04:25:43.883Z,5.10
2018-07-12T04:28:11.218Z,5.40
2018-07-12T04:30:38.578Z,5.70
2018-07-12T04:33:05.955Z,4.93
2018-07-12T04:35:33.317Z,5.70
2018-07-12T04:38:00.695Z,5.13
2018-07-12T04:40:28.038Z,5.77
2018-07-12T04:42:55.403Z,4.90
2018-07-12T04:45:22.751Z,5.53
2018-07-12T04:47:50.110Z,5.50
2018-07-12T04:50:17.482Z,4.83
2018-07-12T04:52:44.859Z,5.33
2018-07-12T04:55:12.269Z,5.80
2018-07-12T04:57:39.637Z,5.60
2018-07-12T05:00:07.137Z,5.60
2018-07-12T05:02:34.491Z,5.40
2018-07-12T05:05:01.855Z,5.30
2018-07-12T05:07:29.218Z,6.20
2018-07-12T05:09:57.010Z,5.67
2018-07-12T05:12:24.522Z,6.03
2018-07-12T05:14:51.906Z,6.57
2018-07-12T05:17:19.258Z,5.63
2018-07-12T05:19:48.706Z,7.00
2018-07-12T05:22:16.219Z,6.17
2018-07-12T05:24:44.617Z,12.33
2018-07-12T05:27:13.145Z,5.47
2018-07-12T05:29:40.537Z,5.70
2018-07-12T05:32:08.280Z,5.10
2018-07-12T05:34:35.681Z,5.80
2018-07-12T05:37:04.690Z,6.50
2018-07-12T05:39:33.203Z,6.00
2018-07-12T05:42:01.834Z,6.43
2018-07-12T05:44:30.384Z,7.20
2018-07-12T05:46:58.913Z,6.67
2018-07-12T05:49:27.720Z,6.20
2018-07-12T05:51:56.238Z,6.50
2018-07-12T05:54:24.931Z,6.20
2018-07-12T05:56:53.465Z,6.07
2018-07-12T05:59:22.036Z,6.43
2018-07-12T06:02:01.788Z,6.50
2018-07-12T06:04:30.301Z,6.97
2018-07-12T06:06:58.852Z,5.77
2018-07-12T06:09:27.366Z,6.30
2018-07-12T06:11:55.939Z,5.90
2018-07-12T06:14:25.231Z,6.80
2018-07-12T06:16:53.821Z,7.30
2018-07-12T06:19:22.447Z,6.40
2018-07-12T06:21:51.059Z,6.40
2018-07-12T06:24:19.771Z,6.40
2018-07-12T06:26:48.265Z,8.43
2018-07-12T06:29:17.121Z,7.03
2018-07-12T06:31:45.628Z,6.23
2018-07-12T06:34:14.164Z,6.70
2018-07-12T06:36:42.722Z,7.00
2018-07-12T06:39:11.785Z,9.27
2018-07-12T06:41:40.346Z,7.77
2018-07-12T06:44:09.827Z,7.53
2018-07-12T06:46:38.388Z,6.40
2018-07-12T06:49:07.045Z,6.37
2018-07-12T06:51:36.141Z,7.63
2018-07-12T06:54:04.722Z,6.60
2018-07-12T06:56:33.309Z,6.17
2018-07-12T06:59:01.998Z,7.70
2018-07-12T07:01:30.585Z,9.73
2018-07-12T07:03:59.291Z,8.70
2018-07-12T07:06:27.917Z,8.80
2018-07-12T07:09:09.386Z,8.63
2018-07-12T07:11:38.146Z,8.40
2018-07-12T07:14:07.552Z,9.07
2018-07-12T07:16:36.234Z,10.50
2018-07-12T07:19:04.864Z,10.83
2018-07-12T07:21:33.830Z,14.83
2018-07-12T07:24:03.003Z,11.93
2018-07-12T07:26:32.219Z,11.30
2018-07-12T07:29:03.425Z,9.93
2018-07-12T07:31:32.909Z,10.47
2018-07-12T07:34:01.454Z,12.13
2018-07-12T07:36:30.083Z,13.07
2018-07-12T07:38:59.287Z,12.73
2018-07-12T07:41:27.854Z,12.77
2018-07-12T07:43:57.234Z,12.63
2018-07-12T07:46:25.781Z,13.27
2018-07-12T07:48:54.519Z,13.47
2018-07-12T07:51:24.622Z,13.07
2018-07-12T07:53:53.159Z,13.47
2018-07-12T07:56:21.731Z,14.67
2018-07-12T07:58:50.299Z,13.60
2018-07-12T08:01:18.900Z,14.70
2018-07-12T08:03:47.465Z,13.40
2018-07-12T08:06:16.093Z,14.40
2018-07-12T08:08:44.643Z,12.97
2018-07-12T08:11:13.214Z,13.70
2018-07-12T08:13:42.263Z,13.27
2018-07-12T08:16:10.929Z,14.83
2018-07-12T08:18:39.704Z,15.00
2018-07-12T08:21:15.971Z,13.40
2018-07-12T08:23:45.788Z,15.97
2018-07-12T08:26:14.438Z,13.30
2018-07-12T08:28:42.986Z,13.03
2018-07-12T08:31:12.664Z,12.43
2018-07-12T08:33:41.288Z,11.40
2018-07-12T08:36:10.567Z,11.63
2018-07-12T08:38:39.337Z,11.77
2018-07-12T08:41:07.956Z,12.23
2018-07-12T08:43:36.522Z,11.60
2018-07-12T08:46:05.178Z,11.83
2018-07-12T08:48:33.763Z,11.27
2018-07-12T08:51:02.334Z,9.33
2018-07-12T08:53:30.867Z,10.60
2018-07-12T08:55:59.410Z,11.90
2018-07-12T08:58:27.977Z,12.43
2018-07-12T09:00:56.519Z,11.83
2018-07-12T09:03:25.085Z,10.77
2018-07-12T09:05:54.520Z,8.67
2018-07-12T09:08:23.221Z,7.40
2018-07-12T09:10:51.799Z,9.97
2018-07-12T09:13:20.361Z,9.07
2018-07-12T09:15:49.018Z,9.90
2018-07-12T09:18:17.558Z,9.67
2018-07-12T09:20:46.462Z,9.50
2018-07-12T09:23:15.059Z,9.90
2018-07-12T09:25:43.586Z,10.07
2018-07-12T09:28:12.198Z,10.47
2018-07-12T09:30:40.746Z,10.10
2018-07-12T09:33:11.443Z,11.90
2018-07-12T09:35:40.078Z,10.70
2018-07-12T09:38:18.514Z,9.60
2018-07-12T09:40:48.315Z,9.97
2018-07-12T09:43:16.861Z,9.73
2018-07-12T09:45:45.418Z,9.67
2018-07-12T09:48:14.268Z,9.90
2018-07-12T09:50:42.898Z,8.73
2018-07-12T09:53:12.266Z,9.20
2018-07-12T09:55:40.894Z,10.00
2018-07-12T09:58:25.799Z,10.87
2018-07-12T10:00:59.658Z,9.20
2018-07-12T10:03:34.229Z,7.67
2018-07-12T10:06:07.087Z,8.07
2018-07-12T10:08:40.980Z,7.10
2018-07-12T10:11:11.043Z,7.03
2018-07-12T10:13:44.950Z,6.37
2018-07-12T10:16:18.861Z,7.47
2018-07-12T10:18:47.491Z,7.27
2018-07-12T10:21:16.071Z,7.77
2018-07-12T10:23:44.623Z,7.70
2018-07-12T10:26:13.173Z,8.07
2018-07-12T10:28:41.682Z,8.37
2018-07-12T10:31:10.199Z,7.43
2018-07-12T10:33:38.762Z,7.07
2018-07-12T10:36:07.371Z,8.90
2018-07-12T10:38:38.968Z,6.60
2018-07-12T10:41:07.633Z,7.37
2018-07-12T10:43:36.207Z,7.10
2018-07-12T10:46:05.763Z,7.43
2018-07-12T10:48:35.926Z,7.70
2018-07-12T10:51:04.493Z,7.23
2018-07-12T10:53:35.195Z,7.47
2018-07-12T10:56:04.034Z,7.40
2018-07-12T10:58:32.635Z,8.70
2018-07-12T11:01:01.361Z,7.53
2018-07-12T11:03:30.077Z,8.90
2018-07-12T11:05:58.641Z,7.27
2018-07-12T11:08:27.307Z,8.00
2018-07-12T11:10:55.922Z,6.33
2018-07-12T11:13:35.510Z,6.63
2018-07-12T11:16:04.605Z,6.73
2018-07-12T11:18:33.803Z,6.80
2018-07-12T11:21:02.811Z,6.90
2018-07-12T11:23:31.394Z,6.17
2018-07-12T11:25:59.983Z,7.83
2018-07-12T11:28:28.719Z,6.93
2018-07-12T11:30:57.283Z,7.90
2018-07-12T11:33:44.299Z,7.90
2018-07-12T11:36:12.968Z,7.27
2018-07-12T11:38:42.763Z,7.43
2018-07-12T11:41:11.907Z,6.70
2018-07-12T11:43:41.744Z,5.87
2018-07-12T11:46:11.533Z,7.00
2018-07-12T11:48:41.066Z,6.80
2018-07-12T11:51:09.677Z,6.37
2018-07-12T11:53:38.261Z,7.07
2018-07-12T11:56:06.990Z,7.33
2018-07-12T11:58:35.541Z,6.30
2018-07-12T12:01:04.137Z,6.30
2018-07-12T12:03:32.976Z,5.67
2018-07-12T12:06:01.506Z,5.50
2018-07-12T12:08:30.784Z,6.27
2018-07-12T12:10:59.331Z,5.70
2018-07-12T12:13:27.954Z,5.53
2018-07-12T12:15:56.428Z,6.20
2018-07-12T12:18:25.018Z,6.83
2018-07-12T12:20:53.606Z,6.10
2018-07-12T12:23:22.099Z,6.33
2018-07-12T12:25:50.762Z,5.57
2018-07-12T12:28:19.339Z,5.90
2018-07-12T12:30:47.897Z,5.80
2018-07-12T12:33:16.438Z,6.10
2018-07-12T12:35:44.970Z,7.47
2018-07-12T12:38:13.533Z,6.70
2018-07-12T12:40:42.009Z,6.50
2018-07-12T12:43:10.545Z,7.80
2018-07-12T12:45:39.082Z,7.43
2018-07-12T12:48:07.662Z,7.77
2018-07-12T12:50:36.182Z,8.23
2018-07-12T12:53:04.800Z,7.63
2018-07-12T12:55:33.330Z,6.93
2018-07-12T12:58:02.437Z,7.03
2018-07-12T13:00:37.772Z,7.03
2018-07-12T13:03:06.356Z,6.20
2018-07-12T13:05:34.873Z,5.87
2018-07-12T13:08:03.472Z,7.57
2018-07-12T13:10:31.987Z,7.87
2018-07-12T13:13:00.554Z,7.53
2018-07-12T13:15:29.158Z,7.60
2018-07-12T13:17:58.322Z,7.63
2018-07-12T13:20:27.082Z,7.90
2018-07-12T13:22:55.674Z,6.80
2018-07-12T13:25:24.319Z,8.63
2018-07-12T13:27:52.892Z,7.70
2018-07-12T13:30:21.711Z,8.87
2018-07-12T13:32:50.303Z,7.73
2018-07-12T13:35:18.842Z,8.30
2018-07-12T13:37:47.371Z,6.53
2018-07-12T13:40:29.130Z,7.90
2018-07-12T13:42:57.942Z,7.60
2018-07-12T13:45:27.156Z,6.87
2018-07-12T13:47:55.778Z,7.10
2018-07-12T13:50:24.017Z,6.53
2018-07-12T13:52:52.703Z,6.77
2018-07-12T13:55:21.229Z,6.50
2018-07-12T13:57:49.813Z,7.23
2018-07-12T14:00:18.374Z,7.00
2018-07-12T14:02:46.941Z,7.37
2018-07-12T14:05:15.509Z,6.40
2018-07-12T14:07:44.082Z,7.10
2018-07-12T14:10:16.565Z,6.20
2018-07-12T14:12:45.779Z,6.83
2018-07-12T14:15:14.323Z,5.60
2018-07-12T14:17:42.837Z,5.47
2018-07-12T14:20:11.442Z,5.03
2018-07-12T14:22:39.974Z,4.37
2018-07-12T14:25:08.524Z,6.13
2018-07-12T14:27:37.088Z,4.83
2018-07-12T14:30:06.188Z,4.97
2018-07-12T14:32:34.763Z,5.83
2018-07-12T14:35:03.394Z,5.20
2018-07-12T14:37:31.914Z,5.00
2018-07-12T14:40:00.477Z,5.10
2018-07-12T14:42:29.010Z,4.60
2018-07-12T14:44:57.575Z,4.80
2018-07-12T14:47:26.154Z,5.10
2018-07-12T14:49:54.659Z,4.57
2018-07-12T14:52:23.257Z,5.23
2018-07-12T14:54:51.749Z,5.00
2018-07-12T14:57:20.274Z,5.40
2018-07-12T14:59:48.837Z,4.93
2018-07-12T15:02:17.362Z,5.00
2018-07-12T15:04:45.930Z,4.10
2018-07-12T15:07:14.473Z,5.10
2018-07-12T15:09:51.046Z,4.50
2018-07-12T15:12:19.588Z,4.83
2018-07-12T15:14:48.118Z,5.00
2018-07-12T15:17:16.709Z,5.00
2018-07-12T15:19:45.234Z,4.80
2018-07-12T15:22:13.789Z,4.33
2018-07-12T15:24:42.316Z,5.07
2018-07-12T15:27:10.829Z,4.63
2018-07-12T15:29:39.383Z,5.10
2018-07-12T15:32:07.926Z,5.40
2018-07-12T15:34:36.464Z,4.70
2018-07-12T15:37:05.133Z,4.47
2018-07-12T15:39:34.402Z,4.93
2018-07-12T15:42:02.965Z,4.17
2018-07-12T15:44:31.516Z,4.03
2018-07-12T15:47:00.050Z,4.37
2018-07-12T15:49:28.634Z,4.30
2018-07-12T15:51:57.168Z,3.50
2018-07-12T15:54:25.686Z,4.03
2018-07-12T15:56:54.290Z,4.10
2018-07-12T15:59:22.853Z,4.30
2018-07-12T16:01:51.429Z,3.30
2018-07-12T16:04:19.991Z,3.67
2018-07-12T16:06:48.590Z,3.97
2018-07-12T16:09:18.044Z,3.50
2018-07-12T16:11:46.643Z,3.90
2018-07-12T16:14:15.270Z,3.30
2018-07-12T16:16:43.847Z,5.03
2018-07-12T16:19:12.428Z,3.77
2018-07-12T16:21:40.980Z,4.00
2018-07-12T16:24:09.554Z,5.77
2018-07-12T16:26:38.109Z,3.60
2018-07-12T16:29:06.632Z,3.50
2018-07-12T16:31:35.205Z,3.53
2018-07-12T16:34:03.761Z,3.73
2018-07-12T16:36:32.343Z,4.00
2018-07-12T16:39:00.849Z,4.33
2018-07-12T16:41:29.366Z,4.00
2018-07-12T16:43:58.033Z,3.27
2018-07-12T16:46:26.606Z,3.80
2018-07-12T16:48:55.206Z,3.20
2018-07-12T16:51:23.743Z,3.90
2018-07-12T16:53:52.350Z,3.50
2018-07-12T16:56:20.913Z,3.60
2018-07-12T16:58:49.654Z,3.63
2018-07-12T17:01:18.224Z,3.40
2018-07-12T17:03:46.760Z,3.87
2018-07-12T17:06:18.523Z,3.50
2018-07-12T17:08:47.027Z,3.47
2018-07-12T17:11:15.677Z,3.00
2018-07-12T17:13:44.249Z,3.70
2018-07-12T17:16:12.849Z,3.50
2018-07-12T17:18:41.939Z,3.57
2018-07-12T17:21:10.539Z,3.50
2018-07-12T17:23:39.086Z,3.43
2018-07-12T17:26:07.634Z,3.10
2018-07-12T17:28:36.217Z,3.10
2018-07-12T17:31:04.710Z,3.13
2018-07-12T17:33:33.321Z,4.07
2018-07-12T17:36:01.823Z,5.10
2018-07-12T17:38:30.374Z,3.43
2018-07-12T17:40:59.699Z,3.10
2018-07-12T17:43:28.242Z,3.00
2018-07-12T17:45:57.122Z,3.70
2018-07-12T17:48:45.286Z,3.17
2018-07-12T17:51:13.874Z,3.50
2018-07-12T17:53:42.441Z,3.33
2018-07-12T17:56:10.981Z,3.47
2018-07-12T17:58:39.723Z,3.73
2018-07-12T18:01:08.509Z,4.50
2018-07-12T18:03:37.097Z,3.40
2018-07-12T18:06:05.731Z,3.50
2018-07-12T18:08:34.326Z,3.37
2018-07-12T18:11:02.936Z,3.80
2018-07-12T18:13:31.453Z,3.30
2018-07-12T18:15:59.967Z,3.33
2018-07-12T18:18:28.603Z,3.17
2018-07-12T18:20:57.197Z,3.20
2018-07-12T18:23:26.363Z,2.90
2018-07-12T18:25:54.902Z,3.20
2018-07-12T18:28:23.484Z,3.37
2018-07-12T18:30:52.088Z,4.00
2018-07-12T18:33:20.618Z,3.80
2018-07-12T18:35:49.155Z,3.90
2018-07-12T18:38:17.926Z,4.10
2018-07-12T18:40:46.485Z,4.80
2018-07-12T18:43:16.394Z,7.57
2018-07-12T18:45:44.960Z,9.40
2018-07-12T18:48:13.510Z,9.37
2018-07-12T18:50:42.080Z,8.87
2018-07-12T18:53:10.678Z,8.67
2018-07-12T18:55:39.244Z,10.00
2018-07-12T18:58:08.034Z,7.90
2018-07-12T19:00:36.582Z,7.33
2018-07-12T19:03:05.151Z,5.60
2018-07-12T19:05:33.694Z,4.67
2018-07-12T19:08:02.330Z,5.83
2018-07-12T19:10:30.841Z,5.57
2018-07-12T19:13:00.155Z,5.20
2018-07-12T19:15:28.802Z,4.50
2018-07-12T19:17:57.333Z,4.80
2018-07-12T19:20:25.963Z,4.40
2018-07-12T19:22:54.528Z,4.80
2018-07-12T19:25:23.110Z,4.27
2018-07-12T19:27:51.613Z,4.70
2018-07-12T19:30:20.185Z,4.87
2018-07-12T19:32:48.759Z,4.90
2018-07-12T19:35:17.365Z,4.20
2018-07-12T19:37:46.576Z,4.80
2018-07-12T19:40:15.110Z,3.93
2018-07-12T19:42:43.781Z,4.90
2018-07-12T19:45:13.311Z,4.50
2018-07-12T19:47:41.868Z,4.90
2018-07-12T19:50:10.818Z,4.47
2018-07-12T19:52:39.346Z,4.30
2018-07-12T19:55:07.933Z,4.50
2018-07-12T19:57:41.848Z,4.07
2018-07-12T20:00:11.411Z,5.20
2018-07-12T20:02:40.194Z,5.30
2018-07-12T20:05:10.474Z,4.03
2018-07-12T20:07:39.076Z,4.03
2018-07-12T20:10:07.657Z,4.20
2018-07-12T20:12:36.178Z,4.47
2018-07-12T20:15:04.985Z,3.90
2018-07-12T20:17:33.566Z,4.73
2018-07-12T20:20:02.369Z,4.60
2018-07-12T20:22:30.977Z,4.37
2018-07-12T20:25:01.742Z,4.23
2018-07-12T20:27:33.599Z,4.20
2018-07-12T20:30:02.188Z,4.50
2018-07-12T20:32:30.788Z,5.17
2018-07-12T20:34:59.291Z,3.70
2018-07-12T20:37:27.801Z,4.57
2018-07-12T20:39:56.402Z,5.17
2018-07-12T20:42:24.938Z,4.37
2018-07-12T20:44:53.528Z,4.63
2018-07-12T20:47:22.111Z,4.57
2018-07-12T20:49:50.647Z,5.50
2018-07-12T20:52:19.246Z,4.43
2018-07-12T20:54:47.875Z,4.43
2018-07-12T20:57:17.374Z,5.47
2018-07-12T20:59:45.872Z,9.00
2018-07-12T21:02:14.414Z,4.40
2018-07-12T21:04:42.912Z,4.90
2018-07-12T21:07:11.549Z,4.67
2018-07-12T21:09:40.295Z,4.80
2018-07-12T21:12:08.831Z,5.00
2018-07-12T21:14:37.389Z,5.27
2018-07-12T21:17:05.968Z,5.10
2018-07-12T21:19:34.537Z,7.50
2018-07-12T21:22:03.131Z,5.33
2018-07-12T21:24:31.650Z,4.77
2018-07-12T21:27:00.321Z,4.60
2018-07-12T21:29:30.019Z,4.57
2018-07-12T21:31:58.658Z,4.70
2018-07-12T21:34:27.165Z,5.20
2018-07-12T21:36:55.700Z,5.67
2018-07-12T21:39:24.372Z,4.50
2018-07-12T21:41:52.878Z,5.30
2018-07-12T21:44:21.514Z,7.33
2018-07-12T21:46:50.057Z,5.00
2018-07-12T21:49:24.156Z,5.17
2018-07-12T21:51:52.787Z,5.30
2018-07-12T21:54:21.887Z,4.97
2018-07-12T21:56:50.438Z,5.33
2018-07-12T21:59:18.946Z,5.60
2018-07-12T22:01:47.486Z,6.60
2018-07-12T22:04:16.047Z,5.13
2018-07-12T22:08:40.831Z,5.00
2018-07-12T22:11:09.370Z,5.27
2018-07-12T22:13:39.092Z,9.20
2018-07-12T22:16:07.728Z,5.43
2018-07-12T22:18:38.325Z,5.50
2018-07-12T22:21:06.897Z,5.57
2018-07-12T22:23:35.502Z,5.83
2018-07-12T22:26:04.100Z,5.20
2018-07-12T22:28:32.682Z,4.90
2018-07-12T22:31:01.279Z,5.33
2018-07-12T22:33:29.837Z,5.13
2018-07-12T22:35:58.399Z,5.10
2018-07-12T22:41:20.818Z,5.20
2018-07-12T22:43:49.306Z,5.80
2018-07-12T22:46:18.446Z,5.60
2018-07-12T22:48:46.987Z,5.07
2018-07-12T22:51:15.539Z,5.47
2018-07-12T22:53:44.133Z,5.17
2018-07-12T22:56:12.687Z,4.70
2018-07-12T22:58:41.252Z,5.23
2018-07-12T23:01:09.822Z,5.70
2018-07-12T23:03:38.846Z,5.10
2018-07-12T23:06:07.428Z,5.30
2018-07-12T23:08:37.188Z,8.00
2018-07-12T23:11:05.857Z,6.17
2018-07-12T23:13:34.348Z,5.80
2018-07-12T23:16:02.884Z,5.60
2018-07-12T23:18:31.429Z,5.00
2018-07-12T23:20:59.988Z,5.93
2018-07-12T23:23:28.552Z,5.83
2018-07-12T23:25:57.109Z,5.50
2018-07-12T23:28:25.858Z,5.43
2018-07-12T23:30:54.389Z,5.43
2018-07-12T23:33:22.891Z,8.17
2018-07-12T23:35:51.421Z,5.63
2018-07-12T23:38:20.213Z,5.63
2018-07-12T23:40:48.755Z,6.23
2018-07-12T23:43:17.334Z,6.03
2018-07-12T23:45:45.900Z,5.77
2018-07-12T23:48:14.526Z,7.27
2018-07-12T23:50:43.021Z,5.67
2018-07-12T23:53:11.588Z,6.73
2018-07-12T23:55:40.110Z,5.80
2018-07-12T23:58:08.697Z,5.80
